sensor_id;sensor_type;location;lat;lon;timestamp;temperature;humidity
20047;DHT22;45339;49.838;18.904;2022-10-13T00:02:06;3.90;68.00
20047;DHT22;45339;49.838;18.904;2022-10-13T00:32:19;3.70;1.00
20047;DHT22;45339;49.838;18.904;2022-10-13T01:02:31;3.60;1.00
20047;DHT22;45339;49.838;18.904;2022-10-13T01:33:06;3.30;1.00
20047;DHT22;45339;49.838;18.904;2022-10-13T02:03:29;3.20;1.00
20047;DHT22;45339;49.838;18.904;2022-10-13T02:33:47;3.20;1.00
20047;DHT22;45339;49.838;18.904;2022-10-13T03:34:09;2.70;99.90
20047;DHT22;45339;49.838;18.904;2022-10-13T04:04:21;2.90;1.00
20047;DHT22;45339;49.838;18.904;2022-10-13T04:34:35;2.90;1.00
20047;DHT22;45339;49.838;18.904;2022-10-13T05:04:54;2.70;99.90
20047;DHT22;45339;49.838;18.904;2022-10-13T05:35:04;2.40;99.90
20047;DHT22;45339;49.838;18.904;2022-10-13T06:05:23;2.90;75.60
20047;DHT22;45339;49.838;18.904;2022-10-13T06:35:34;8.10;99.90
20047;DHT22;45339;49.838;18.904;2022-10-13T07:35:52;12.40;1.00
20047;DHT22;45339;49.838;18.904;2022-10-13T08:06:09;19.90;94.40
20047;DHT22;45339;49.838;18.904;2022-10-13T08:36:19;28.60;1.00
20047;DHT22;45339;49.838;18.904;2022-10-13T09:06:31;28.50;1.00
20047;DHT22;45339;49.838;18.904;2022-10-13T10:07:17;32.10;1.00
20047;DHT22;45339;49.838;18.904;2022-10-13T10:37:40;32.60;1.00
20047;DHT22;45339;49.838;18.904;2022-10-13T11:08:27;25.70;1.00
20047;DHT22;45339;49.838;18.904;2022-10-13T11:38:37;22.40;1.00
20047;DHT22;45339;49.838;18.904;2022-10-13T12:08:48;20.90;1.00
20047;DHT22;45339;49.838;18.904;2022-10-13T12:39:12;20.00;1.00
20047;DHT22;45339;49.838;18.904;2022-10-13T13:09:32;19.30;1.00
20047;DHT22;45339;49.838;18.904;2022-10-13T13:39:43;18.90;1.00
20047;DHT22;45339;49.838;18.904;2022-10-13T14:09:54;18.40;1.00
20047;DHT22;45339;49.838;18.904;2022-10-13T14:40:08;17.90;1.00
20047;DHT22;45339;49.838;18.904;2022-10-13T15:10:17;17.20;10.10
20047;DHT22;45339;49.838;18.904;2022-10-13T15:40:38;16.90;74.70
20047;DHT22;45339;49.838;18.904;2022-10-13T16:10:46;15.90;99.90
20047;DHT22;45339;49.838;18.904;2022-10-13T16:40:55;14.40;1.00
20047;DHT22;45339;49.838;18.904;2022-10-13T17:11:04;13.60;1.00
20047;DHT22;45339;49.838;18.904;2022-10-13T17:41:17;12.60;20.20
20047;DHT22;45339;49.838;18.904;2022-10-13T18:11:26;12.00;1.00
20047;DHT22;45339;49.838;18.904;2022-10-13T18:41:35;11.30;2.10
20047;DHT22;45339;49.838;18.904;2022-10-13T19:11:54;10.70;1.00
20047;DHT22;45339;49.838;18.904;2022-10-13T19:42:03;10.20;55.50
20047;DHT22;45339;49.838;18.904;2022-10-13T20:12:14;10.00;99.90
20047;DHT22;45339;49.838;18.904;2022-10-13T20:42:26;9.60;1.00
20047;DHT22;45339;49.838;18.904;2022-10-13T21:12:34;9.10;1.00
20047;DHT22;45339;49.838;18.904;2022-10-13T21:42:43;9.10;99.90
20047;DHT22;45339;49.838;18.904;2022-10-13T22:12:58;8.80;1.00
20047;DHT22;45339;49.838;18.904;2022-10-13T22:43:07;8.90;99.90
20047;DHT22;45339;49.838;18.904;2022-10-13T23:13:16;9.00;99.90
20047;DHT22;45339;49.838;18.904;2022-10-13T23:43:26;9.00;99.90
